createdAt,value
2018-05-11T00:01:44.614Z,1.43
2018-05-11T00:04:11.142Z,1.50
2018-05-11T00:06:37.291Z,1.40
2018-05-11T00:09:03.509Z,1.40
2018-05-11T00:11:29.710Z,1.30
2018-05-11T00:13:55.856Z,1.77
2018-05-11T00:16:21.996Z,1.77
2018-05-11T00:18:48.201Z,1.50
2018-05-11T00:21:14.340Z,1.30
2018-05-11T00:23:40.469Z,1.77
2018-05-11T00:26:06.641Z,1.90
2018-05-11T00:28:32.810Z,1.30
2018-05-11T00:30:58.987Z,1.43
2018-05-11T00:33:25.264Z,1.40
2018-05-11T00:35:51.415Z,1.70
2018-05-11T00:38:17.563Z,1.90
2018-05-11T00:40:43.730Z,1.50
2018-05-11T00:43:09.870Z,1.50
2018-05-11T00:45:36.033Z,1.80
2018-05-11T00:48:02.157Z,1.40
2018-05-11T00:50:28.337Z,1.40
2018-05-11T00:52:54.480Z,1.80
2018-05-11T00:55:33.036Z,1.60
2018-05-11T00:57:59.174Z,1.50
2018-05-11T01:00:25.340Z,1.50
2018-05-11T01:02:51.501Z,1.93
2018-05-11T01:05:17.633Z,1.20
2018-05-11T01:07:44.067Z,1.40
2018-05-11T01:10:10.269Z,1.50
2018-05-11T01:12:36.397Z,1.47
2018-05-11T01:15:02.536Z,1.40
2018-05-11T01:17:29.105Z,1.50
2018-05-11T01:19:55.339Z,1.60
2018-05-11T01:22:21.487Z,1.30
2018-05-11T01:24:47.725Z,1.50
2018-05-11T01:27:14.107Z,1.20
2018-05-11T01:29:40.482Z,1.40
2018-05-11T01:32:06.667Z,1.43
2018-05-11T01:34:32.939Z,1.67
2018-05-11T01:36:59.158Z,1.57
2018-05-11T01:39:25.335Z,1.40
2018-05-11T01:41:51.508Z,1.53
2018-05-11T01:44:17.650Z,1.47
2018-05-11T01:46:43.814Z,1.30
2018-05-11T01:49:09.965Z,1.60
2018-05-11T01:51:36.117Z,1.60
2018-05-11T01:54:02.255Z,1.20
2018-05-11T01:56:28.797Z,1.30
2018-05-11T01:58:54.981Z,1.53
2018-05-11T02:01:21.459Z,1.50
2018-05-11T02:03:47.599Z,1.43
2018-05-11T02:06:13.817Z,1.10
2018-05-11T02:08:40.058Z,1.23
2018-05-11T02:11:06.201Z,1.40
2018-05-11T02:13:32.419Z,1.63
2018-05-11T02:15:59.007Z,1.53
2018-05-11T02:18:25.152Z,1.60
2018-05-11T02:20:51.449Z,1.20
2018-05-11T02:23:17.597Z,1.37
2018-05-11T02:25:43.740Z,1.30
2018-05-11T02:28:10.176Z,1.20
2018-05-11T02:30:36.348Z,1.43
2018-05-11T02:33:02.567Z,1.53
2018-05-11T02:35:28.731Z,1.13
2018-05-11T02:37:54.860Z,1.60
2018-05-11T02:40:21.023Z,1.60
2018-05-11T02:42:47.174Z,1.70
2018-05-11T02:45:13.750Z,1.27
2018-05-11T02:47:39.901Z,1.40
2018-05-11T02:50:06.060Z,1.50
2018-05-11T02:52:32.236Z,1.40
2018-05-11T02:54:58.595Z,1.67
2018-05-11T02:57:24.775Z,1.50
2018-05-11T02:59:50.920Z,1.33
2018-05-11T03:02:17.355Z,1.17
2018-05-11T03:04:43.490Z,1.40
2018-05-11T03:07:09.632Z,1.40
2018-05-11T03:09:35.982Z,1.37
2018-05-11T03:12:02.143Z,1.23
2018-05-11T03:14:28.317Z,1.83
2018-05-11T03:16:54.481Z,1.60
2018-05-11T03:19:20.876Z,1.20
2018-05-11T03:21:47.024Z,1.50
2018-05-11T03:24:13.622Z,1.60
2018-05-11T03:26:39.771Z,1.30
2018-05-11T03:29:05.922Z,1.50
2018-05-11T03:31:32.451Z,1.53
2018-05-11T03:33:58.593Z,1.27
2018-05-11T03:36:24.745Z,1.33
2018-05-11T03:38:50.964Z,1.07
2018-05-11T03:41:17.093Z,1.53
2018-05-11T03:43:43.370Z,1.23
2018-05-11T03:46:09.745Z,1.10
2018-05-11T03:48:35.886Z,1.43
2018-05-11T03:51:02.054Z,1.30
2018-05-11T03:53:28.181Z,1.70
2018-05-11T03:55:54.389Z,1.30
2018-05-11T03:58:20.517Z,1.53
2018-05-11T04:00:46.641Z,1.20
2018-05-11T04:03:24.913Z,1.50
2018-05-11T04:05:59.304Z,1.30
2018-05-11T04:08:34.711Z,1.10
2018-05-11T04:11:00.875Z,1.30
2018-05-11T04:13:27.022Z,1.10
2018-05-11T04:15:53.185Z,1.33
2018-05-11T04:18:19.330Z,1.50
2018-05-11T04:20:45.525Z,1.47
2018-05-11T04:23:11.674Z,1.50
2018-05-11T04:25:37.862Z,1.50
2018-05-11T04:28:04.055Z,1.30
2018-05-11T04:30:30.277Z,1.30
2018-05-11T04:32:56.645Z,1.17
2018-05-11T04:35:22.781Z,1.43
2018-05-11T04:37:48.957Z,1.47
2018-05-11T04:40:15.092Z,1.30
2018-05-11T04:42:41.254Z,1.23
2018-05-11T04:45:07.391Z,1.20
2018-05-11T04:47:33.710Z,1.17
2018-05-11T04:49:59.941Z,1.33
2018-05-11T04:52:26.405Z,1.37
2018-05-11T04:54:52.627Z,1.13
2018-05-11T04:57:18.761Z,1.23
2018-05-11T04:59:44.909Z,1.20
2018-05-11T05:02:11.079Z,1.47
2018-05-11T05:04:37.229Z,1.17
2018-05-11T05:07:03.401Z,1.37
2018-05-11T05:09:29.596Z,1.03
2018-05-11T05:11:56.089Z,1.23
2018-05-11T05:14:22.234Z,1.10
2018-05-11T05:16:48.362Z,1.53
2018-05-11T05:19:14.565Z,1.30
2018-05-11T05:21:40.763Z,1.20
2018-05-11T05:24:06.923Z,1.30
2018-05-11T05:26:33.178Z,1.40
2018-05-11T05:28:59.413Z,1.07
2018-05-11T05:31:26.120Z,1.30
2018-05-11T05:33:52.311Z,1.20
2018-05-11T05:36:18.457Z,1.20
2018-05-11T05:38:45.086Z,1.47
2018-05-11T05:41:11.217Z,1.50
2018-05-11T05:43:37.397Z,1.20
2018-05-11T05:46:03.675Z,1.40
2018-05-11T05:48:29.810Z,1.10
2018-05-11T05:50:55.951Z,1.17
2018-05-11T05:53:22.355Z,1.30
2018-05-11T05:55:48.521Z,1.23
2018-05-11T05:58:14.722Z,1.07
2018-05-11T06:00:41.100Z,1.27
2018-05-11T06:03:07.650Z,1.10
2018-05-11T06:05:33.958Z,1.33
2018-05-11T06:08:00.345Z,1.00
2018-05-11T06:10:26.505Z,1.13
2018-05-11T06:12:59.698Z,1.20
2018-05-11T06:15:25.864Z,1.20
2018-05-11T06:17:52.073Z,1.20
2018-05-11T06:20:18.214Z,1.40
2018-05-11T06:22:44.366Z,1.23
2018-05-11T06:25:10.532Z,1.07
2018-05-11T06:27:36.672Z,1.10
2018-05-11T06:30:03.253Z,1.23
2018-05-11T06:32:29.395Z,0.93
2018-05-11T06:34:55.555Z,1.20
2018-05-11T06:37:21.837Z,1.20
2018-05-11T06:39:47.985Z,1.67
2018-05-11T06:42:14.135Z,1.17
2018-05-11T06:44:40.688Z,1.40
2018-05-11T06:47:07.117Z,1.27
2018-05-11T06:49:33.241Z,1.10
2018-05-11T06:52:00.084Z,1.30
2018-05-11T06:54:26.217Z,1.30
2018-05-11T06:56:52.352Z,0.90
2018-05-11T06:59:18.883Z,1.27
2018-05-11T07:01:45.017Z,1.20
2018-05-11T07:04:11.153Z,1.37
2018-05-11T07:06:37.317Z,1.00
2018-05-11T07:09:03.537Z,1.40
2018-05-11T07:11:29.724Z,1.30
2018-05-11T07:13:55.879Z,1.20
2018-05-11T07:16:22.046Z,1.10
2018-05-11T07:18:48.186Z,1.20
2018-05-11T07:21:14.723Z,0.93
2018-05-11T07:23:40.862Z,1.10
2018-05-11T07:26:06.994Z,1.10
2018-05-11T07:28:33.168Z,1.20
2018-05-11T07:30:59.346Z,1.10
2018-05-11T07:33:25.762Z,1.60
2018-05-11T07:35:52.033Z,1.40
2018-05-11T07:38:18.168Z,1.10
2018-05-11T07:40:44.304Z,1.00
2018-05-11T07:43:10.556Z,1.30
2018-05-11T07:45:36.787Z,1.00
2018-05-11T07:48:03.017Z,1.20
2018-05-11T07:50:29.160Z,1.00
2018-05-11T07:52:55.344Z,1.13
2018-05-11T07:55:21.470Z,1.30
2018-05-11T07:57:47.622Z,1.20
2018-05-11T08:00:14.581Z,1.30
2018-05-11T08:02:40.731Z,1.10
2018-05-11T08:05:06.865Z,1.13
2018-05-11T08:07:33.035Z,1.10
2018-05-11T08:09:59.178Z,1.20
2018-05-11T08:12:25.385Z,1.10
2018-05-11T08:14:51.509Z,1.20
2018-05-11T08:17:17.668Z,1.10
2018-05-11T08:19:43.798Z,1.10
2018-05-11T08:22:10.007Z,1.30
2018-05-11T08:24:36.145Z,1.10
2018-05-11T08:27:02.364Z,1.20
2018-05-11T08:29:28.474Z,1.17
2018-05-11T08:31:54.613Z,1.10
2018-05-11T08:34:20.796Z,1.10
2018-05-11T08:36:47.276Z,1.10
2018-05-11T08:39:13.410Z,1.23
2018-05-11T08:41:39.945Z,1.13
2018-05-11T08:44:06.134Z,1.00
2018-05-11T08:46:32.273Z,1.27
2018-05-11T08:48:58.728Z,0.93
2018-05-11T08:51:24.992Z,0.97
2018-05-11T08:53:51.392Z,1.00
2018-05-11T08:56:17.821Z,1.07
2018-05-11T08:58:43.988Z,1.37
2018-05-11T09:01:10.118Z,1.20
2018-05-11T09:03:36.397Z,1.00
2018-05-11T09:06:02.551Z,1.10
2018-05-11T09:08:28.687Z,1.00
2018-05-11T09:10:54.970Z,1.23
2018-05-11T09:13:21.145Z,1.00
2018-05-11T09:15:47.327Z,1.23
2018-05-11T09:18:13.506Z,1.10
2018-05-11T09:20:39.668Z,1.20
2018-05-11T09:23:05.829Z,1.10
2018-05-11T09:25:32.496Z,1.20
2018-05-11T09:27:58.621Z,1.10
2018-05-11T09:30:24.758Z,1.00
2018-05-11T09:32:51.043Z,1.20
2018-05-11T09:35:17.170Z,1.20
2018-05-11T09:37:43.301Z,1.10
2018-05-11T09:40:09.478Z,1.30
2018-05-11T09:42:35.617Z,1.27
2018-05-11T09:45:02.199Z,1.20
2018-05-11T09:47:28.373Z,1.40
2018-05-11T09:49:54.516Z,1.00
2018-05-11T09:52:20.709Z,1.20
2018-05-11T09:54:46.854Z,1.20
2018-05-11T09:57:13.326Z,1.10
2018-05-11T09:59:39.501Z,1.10
2018-05-11T10:02:05.666Z,1.30
2018-05-11T10:04:32.035Z,1.10
2018-05-11T10:06:58.165Z,1.20
2018-05-11T10:09:24.733Z,1.07
2018-05-11T10:11:50.864Z,1.10
2018-05-11T10:14:17.071Z,1.10
2018-05-11T10:16:43.378Z,1.20
2018-05-11T10:19:09.509Z,1.00
2018-05-11T10:21:35.646Z,1.10
2018-05-11T10:24:02.138Z,1.20
2018-05-11T10:26:28.285Z,1.00
2018-05-11T10:28:54.453Z,1.10
2018-05-11T10:31:20.926Z,1.10
2018-05-11T10:33:47.061Z,0.90
2018-05-11T10:36:13.234Z,1.30
2018-05-11T10:38:39.709Z,1.00
2018-05-11T10:41:05.840Z,1.00
2018-05-11T10:43:32.269Z,1.00
2018-05-11T10:45:58.427Z,0.97
2018-05-11T10:48:25.081Z,1.10
2018-05-11T10:50:51.237Z,1.07
2018-05-11T10:53:17.424Z,1.20
2018-05-11T10:55:43.690Z,1.10
2018-05-11T10:58:09.818Z,1.20
2018-05-11T11:00:35.961Z,1.00
2018-05-11T11:03:02.129Z,1.00
2018-05-11T11:05:28.640Z,1.17
2018-05-11T11:07:54.783Z,1.00
2018-05-11T11:10:20.914Z,1.10
2018-05-11T11:12:47.086Z,1.07
2018-05-11T11:15:13.238Z,1.20
2018-05-11T11:17:39.591Z,1.10
2018-05-11T11:20:05.986Z,1.00
2018-05-11T11:22:32.342Z,1.27
2018-05-11T11:24:58.476Z,1.10
2018-05-11T11:27:24.605Z,1.00
2018-05-11T11:29:51.160Z,1.00
2018-05-11T11:32:17.301Z,1.17
2018-05-11T11:34:43.496Z,1.00
2018-05-11T11:37:09.625Z,1.10
2018-05-11T11:39:35.770Z,1.00
2018-05-11T11:42:02.051Z,1.10
2018-05-11T11:44:28.246Z,1.00
2018-05-11T11:46:54.430Z,1.07
2018-05-11T11:49:20.589Z,1.10
2018-05-11T11:51:46.732Z,0.90
2018-05-11T11:54:13.207Z,1.00
2018-05-11T11:56:39.349Z,1.00
2018-05-11T11:59:05.510Z,0.97
2018-05-11T12:01:31.741Z,0.90
2018-05-11T12:03:57.863Z,1.00
2018-05-11T12:06:24.087Z,0.90
2018-05-11T12:08:50.337Z,0.93
2018-05-11T12:11:16.418Z,1.20
2018-05-11T12:13:42.591Z,0.93
2018-05-11T12:16:08.737Z,1.03
2018-05-11T12:18:35.411Z,1.00
2018-05-11T12:21:01.619Z,1.10
2018-05-11T12:23:27.730Z,1.10
2018-05-11T12:25:53.902Z,1.00
2018-05-11T12:28:20.281Z,1.10
2018-05-11T12:30:46.442Z,1.00
2018-05-11T12:33:12.582Z,0.83
2018-05-11T12:35:38.982Z,0.90
2018-05-11T12:38:05.373Z,1.00
2018-05-11T12:40:31.762Z,1.20
2018-05-11T12:42:58.043Z,0.90
2018-05-11T12:45:24.190Z,1.03
2018-05-11T12:47:50.316Z,1.00
2018-05-11T12:50:16.482Z,1.10
2018-05-11T12:52:42.635Z,0.97
2018-05-11T12:55:08.792Z,1.10
2018-05-11T12:57:35.605Z,0.90
2018-05-11T13:00:01.776Z,1.00
2018-05-11T13:02:27.917Z,0.90
2018-05-11T13:04:54.087Z,1.10
2018-05-11T13:07:20.278Z,1.00
2018-05-11T13:09:46.421Z,1.00
2018-05-11T13:12:12.581Z,0.80
2018-05-11T13:14:38.880Z,1.00
2018-05-11T13:17:05.018Z,1.13
2018-05-11T13:19:31.278Z,1.00
2018-05-11T13:21:57.414Z,1.00
2018-05-11T13:24:23.566Z,1.00
2018-05-11T13:26:49.716Z,0.87
2018-05-11T13:29:15.848Z,1.20
2018-05-11T13:31:42.025Z,1.00
2018-05-11T13:34:08.165Z,0.90
2018-05-11T13:36:34.686Z,1.00
2018-05-11T13:39:00.826Z,1.00
2018-05-11T13:41:26.973Z,0.90
2018-05-11T13:43:53.133Z,1.10
2018-05-11T13:46:19.278Z,1.00
2018-05-11T13:48:45.568Z,0.90
2018-05-11T13:51:11.716Z,0.83
2018-05-11T13:53:37.853Z,1.10
2018-05-11T13:56:04.104Z,1.10
2018-05-11T13:58:30.553Z,0.90
2018-05-11T14:00:56.694Z,1.03
2018-05-11T14:03:23.075Z,1.20
2018-05-11T14:05:49.257Z,0.97
2018-05-11T14:08:15.409Z,1.00
2018-05-11T14:10:41.604Z,1.10
2018-05-11T14:13:07.740Z,1.00
2018-05-11T14:15:33.902Z,1.00
2018-05-11T14:18:00.524Z,0.93
2018-05-11T14:20:26.690Z,0.97
2018-05-11T14:22:52.971Z,1.00
2018-05-11T14:25:19.142Z,1.07
2018-05-11T14:27:45.274Z,0.90
2018-05-11T14:30:11.560Z,1.20
2018-05-11T14:32:37.696Z,1.00
2018-05-11T14:35:03.827Z,0.97
2018-05-11T14:37:29.996Z,0.90
2018-05-11T14:39:56.153Z,1.00
2018-05-11T14:42:22.629Z,0.90
2018-05-11T14:44:48.835Z,0.90
2018-05-11T14:47:14.965Z,1.10
2018-05-11T14:49:41.136Z,1.00
2018-05-11T14:52:07.777Z,1.00
2018-05-11T14:54:33.919Z,0.90
2018-05-11T14:57:00.056Z,1.10
2018-05-11T14:59:26.227Z,0.80
2018-05-11T15:01:52.514Z,0.90
2018-05-11T15:04:18.658Z,0.80
2018-05-11T15:06:44.797Z,0.90
2018-05-11T15:09:10.964Z,1.00
2018-05-11T15:11:37.134Z,0.83
2018-05-11T15:14:03.332Z,1.00
2018-05-11T15:16:29.462Z,0.90
2018-05-11T15:18:55.646Z,1.00
2018-05-11T15:21:21.809Z,0.90
2018-05-11T15:23:47.979Z,1.13
2018-05-11T15:26:14.187Z,0.90
2018-05-11T15:28:40.335Z,0.90
2018-05-11T15:31:06.504Z,1.00
2018-05-11T15:33:33.258Z,0.90
2018-05-11T15:35:59.423Z,0.80
2018-05-11T15:38:25.557Z,0.90
2018-05-11T15:40:51.767Z,0.87
2018-05-11T15:43:24.899Z,0.90
2018-05-11T15:45:51.078Z,0.90
2018-05-11T15:48:17.253Z,0.80
2018-05-11T15:50:44.146Z,0.90
2018-05-11T15:53:10.289Z,0.90
2018-05-11T15:55:36.663Z,0.80
2018-05-11T15:58:02.837Z,0.90
2018-05-11T16:00:28.973Z,0.93
2018-05-11T16:02:55.241Z,0.93
2018-05-11T16:05:21.382Z,0.90
2018-05-11T16:07:47.564Z,0.90
2018-05-11T16:10:13.738Z,1.00
2018-05-11T16:12:40.011Z,0.80
2018-05-11T16:15:07.029Z,0.90
2018-05-11T16:17:33.179Z,1.00
2018-05-11T16:19:59.375Z,0.90
2018-05-11T16:22:25.815Z,0.83
2018-05-11T16:24:51.962Z,1.00
2018-05-11T16:27:18.136Z,0.90
2018-05-11T16:29:44.342Z,0.90
2018-05-11T16:32:10.509Z,0.83
2018-05-11T16:34:36.668Z,0.97
2018-05-11T16:37:03.141Z,0.80
2018-05-11T16:39:29.323Z,1.07
2018-05-11T16:41:55.692Z,1.00
2018-05-11T16:44:21.877Z,0.73
2018-05-11T16:46:48.025Z,0.80
2018-05-11T16:49:14.544Z,0.90
2018-05-11T16:51:40.694Z,0.80
2018-05-11T16:54:06.828Z,0.90
2018-05-11T16:56:33.096Z,0.90
2018-05-11T16:58:59.232Z,0.90
2018-05-11T17:01:25.403Z,0.93
2018-05-11T17:03:51.989Z,0.90
2018-05-11T17:06:18.134Z,0.90
2018-05-11T17:08:44.269Z,0.80
2018-05-11T17:11:10.441Z,1.00
2018-05-11T17:13:36.597Z,0.90
2018-05-11T17:16:03.084Z,0.90
2018-05-11T17:18:29.258Z,0.90
2018-05-11T17:20:55.416Z,0.83
2018-05-11T17:23:21.920Z,0.90
2018-05-11T17:25:48.048Z,0.80
2018-05-11T17:28:14.190Z,1.10
2018-05-11T17:30:40.358Z,1.00
2018-05-11T17:33:06.506Z,0.80
2018-05-11T17:35:32.763Z,1.00
2018-05-11T17:37:58.906Z,0.80
2018-05-11T17:40:25.045Z,1.00
2018-05-11T17:42:51.209Z,0.90
2018-05-11T17:45:17.397Z,0.90
2018-05-11T17:47:43.571Z,0.90
2018-05-11T17:50:09.720Z,0.90
2018-05-11T17:52:35.893Z,0.77
2018-05-11T17:55:02.039Z,1.00
2018-05-11T17:57:28.611Z,1.00
2018-05-11T17:59:54.745Z,0.90
2018-05-11T18:04:53.952Z,0.77
2018-05-11T18:07:20.438Z,0.90
2018-05-11T18:09:46.582Z,0.80
2018-05-11T18:12:12.741Z,0.80
2018-05-11T18:14:38.925Z,0.90
2018-05-11T18:17:05.106Z,1.07
2018-05-11T18:19:31.392Z,1.03
2018-05-11T18:21:57.565Z,1.00
2018-05-11T18:24:23.716Z,0.80
2018-05-11T18:26:49.931Z,0.90
2018-05-11T18:29:16.381Z,0.93
2018-05-11T18:31:42.559Z,0.80
2018-05-11T18:34:08.742Z,0.90
2018-05-11T18:36:34.906Z,0.90
2018-05-11T18:39:01.045Z,0.80
2018-05-11T18:41:27.267Z,0.97
2018-05-11T18:43:53.405Z,1.00
2018-05-11T18:46:19.810Z,0.83
2018-05-11T18:48:45.982Z,0.90
2018-05-11T18:51:12.121Z,1.00
2018-05-11T18:53:38.632Z,1.00
2018-05-11T18:56:04.449Z,1.03
2018-05-11T18:58:30.722Z,0.97
2018-05-11T19:00:56.865Z,0.80
2018-05-11T19:03:22.996Z,1.00
2018-05-11T19:05:49.198Z,1.00
2018-05-11T19:08:15.336Z,0.87
2018-05-11T19:10:41.479Z,0.90
2018-05-11T19:13:07.671Z,0.83
2018-05-11T19:15:33.822Z,0.87
2018-05-11T19:17:59.989Z,0.90
2018-05-11T19:20:26.223Z,1.00
2018-05-11T19:22:52.585Z,0.80
2018-05-11T19:25:19.423Z,0.97
2018-05-11T19:27:45.615Z,0.83
2018-05-11T19:30:11.755Z,0.90
2018-05-11T19:32:37.924Z,1.03
2018-05-11T19:35:04.107Z,0.87
2018-05-11T19:37:30.395Z,0.93
2018-05-11T19:39:56.548Z,0.93
2018-05-11T19:42:22.749Z,0.90
2018-05-11T19:44:48.885Z,0.90
2018-05-11T19:47:15.252Z,0.90
2018-05-11T19:49:41.691Z,0.83
2018-05-11T19:52:07.838Z,0.90
2018-05-11T19:54:33.986Z,0.90
2018-05-11T19:57:00.161Z,1.00
2018-05-11T19:59:33.345Z,1.00
2018-05-11T20:01:59.522Z,1.20
2018-05-11T20:04:25.662Z,1.00
2018-05-11T20:06:51.961Z,0.90
2018-05-11T20:09:18.110Z,0.90
2018-05-11T20:11:44.285Z,1.10
2018-05-11T20:14:10.455Z,0.83
2018-05-11T20:16:36.617Z,1.10
2018-05-11T20:19:02.757Z,0.97
2018-05-11T20:21:28.948Z,1.00
2018-05-11T20:23:55.371Z,1.07
2018-05-11T20:26:21.574Z,1.00
2018-05-11T20:28:47.805Z,0.80
2018-05-11T20:31:13.953Z,0.90
2018-05-11T20:33:40.510Z,1.07
2018-05-11T20:36:06.880Z,0.90
2018-05-11T20:38:33.005Z,0.90
2018-05-11T20:40:59.161Z,1.00
2018-05-11T20:43:25.332Z,1.00
2018-05-11T20:45:51.492Z,1.00
2018-05-11T20:48:18.102Z,0.90
2018-05-11T20:50:44.271Z,0.90
2018-05-11T20:53:10.395Z,1.00
2018-05-11T20:55:37.217Z,1.00
2018-05-11T20:58:03.348Z,1.40
2018-05-11T21:00:29.474Z,1.03
2018-05-11T21:02:55.686Z,0.90
2018-05-11T21:05:21.951Z,1.10
2018-05-11T21:07:48.098Z,1.00
2018-05-11T21:10:14.234Z,0.80
2018-05-11T21:12:40.653Z,1.00
2018-05-11T21:15:06.795Z,0.97
2018-05-11T21:17:32.953Z,1.00
2018-05-11T21:19:59.084Z,1.10
2018-05-11T21:22:25.295Z,1.00
2018-05-11T21:24:51.565Z,1.20
2018-05-11T21:27:17.788Z,0.90
2018-05-11T21:29:43.878Z,1.00
2018-05-11T21:32:10.161Z,0.90
2018-05-11T21:34:36.302Z,0.90
2018-05-11T21:37:02.477Z,1.10
2018-05-11T21:39:28.674Z,1.10
2018-05-11T21:41:54.814Z,1.10
2018-05-11T21:44:21.293Z,1.00
2018-05-11T21:46:47.445Z,1.00
2018-05-11T21:49:13.992Z,1.10
2018-05-11T21:51:40.133Z,0.90
2018-05-11T21:54:06.613Z,1.03
2018-05-11T21:56:32.774Z,1.13
2018-05-11T21:58:58.935Z,1.10
2018-05-11T22:01:25.205Z,1.07
2018-05-11T22:03:51.297Z,0.90
2018-05-11T22:06:17.460Z,1.00
2018-05-11T22:08:43.633Z,1.10
2018-05-11T22:11:09.765Z,1.00
2018-05-11T22:13:36.002Z,1.17
2018-05-11T22:16:02.099Z,1.07
2018-05-11T22:18:28.261Z,1.10
2018-05-11T22:20:54.435Z,1.00
2018-05-11T22:23:20.571Z,1.00
2018-05-11T22:25:46.778Z,0.90
2018-05-11T22:28:12.904Z,1.20
2018-05-11T22:30:39.448Z,1.10
2018-05-11T22:33:05.587Z,1.07
2018-05-11T22:35:31.727Z,1.00
2018-05-11T22:37:58.341Z,1.00
2018-05-11T22:40:24.489Z,0.90
2018-05-11T22:42:50.636Z,0.90
2018-05-11T22:45:16.802Z,0.90
2018-05-11T22:47:42.941Z,1.20
2018-05-11T22:50:09.217Z,0.97
2018-05-11T22:52:35.352Z,0.90
2018-05-11T22:55:01.800Z,1.00
2018-05-11T22:57:27.986Z,1.07
2018-05-11T22:59:54.117Z,0.90
2018-05-11T23:02:20.258Z,1.00
2018-05-11T23:04:46.545Z,0.90
2018-05-11T23:07:12.678Z,1.00
2018-05-11T23:09:38.831Z,0.90
2018-05-11T23:12:04.999Z,0.90
2018-05-11T23:14:31.153Z,1.10
2018-05-11T23:16:57.320Z,1.10
2018-05-11T23:19:23.458Z,1.27
2018-05-11T23:21:49.778Z,1.10
2018-05-11T23:24:15.925Z,1.00
2018-05-11T23:26:42.176Z,0.90
2018-05-11T23:29:08.322Z,1.00
2018-05-11T23:31:34.846Z,1.00
2018-05-11T23:34:00.986Z,0.90
2018-05-11T23:36:27.170Z,1.00
2018-05-11T23:38:53.345Z,1.10
2018-05-11T23:41:19.494Z,1.00
2018-05-11T23:43:45.653Z,1.10
2018-05-11T23:46:11.793Z,1.10
2018-05-11T23:48:37.987Z,1.10
2018-05-11T23:51:04.160Z,0.90
2018-05-11T23:53:30.330Z,0.90
2018-05-11T23:55:56.468Z,1.07
2018-05-11T23:58:22.626Z,1.00
